createdAt,value
2024-04-14T00:01:43.173Z,15.77
2024-04-14T00:04:10.016Z,15.84
2024-04-14T00:06:36.854Z,15.91
2024-04-14T00:09:03.913Z,16.00
2024-04-14T00:11:30.665Z,16.07
2024-04-14T00:13:57.255Z,16.05
2024-04-14T00:16:23.894Z,16.07
2024-04-14T00:18:51.638Z,16.04
2024-04-14T00:21:23.354Z,16.07
2024-04-14T00:23:51.234Z,16.05
2024-04-14T00:26:17.898Z,16.00
2024-04-14T00:28:45.567Z,15.95
2024-04-14T00:31:12.293Z,15.98
2024-04-14T00:33:39.194Z,15.87
2024-04-14T00:36:06.446Z,15.82
2024-04-14T00:38:33.155Z,15.79
2024-04-14T00:40:59.754Z,15.79
2024-04-14T00:43:26.399Z,15.79
2024-04-14T00:45:53.725Z,15.72
2024-04-14T00:48:21.492Z,15.69
2024-04-14T00:50:50.318Z,15.66
2024-04-14T00:53:17.161Z,15.55
2024-04-14T00:55:45.012Z,15.50
2024-04-14T00:58:11.936Z,15.57
2024-04-14T01:00:39.000Z,15.54
2024-04-14T01:03:07.689Z,15.48
2024-04-14T01:05:34.372Z,15.50
2024-04-14T01:08:01.158Z,15.51
2024-04-14T01:10:30.874Z,15.49
2024-04-14T01:12:57.980Z,15.47
2024-04-14T01:15:24.918Z,15.42
2024-04-14T01:17:51.736Z,15.35
2024-04-14T01:20:19.118Z,15.24
2024-04-14T01:22:45.650Z,15.16
2024-04-14T01:25:12.768Z,15.05
2024-04-14T01:27:41.980Z,14.98
2024-04-14T01:30:09.518Z,14.86
2024-04-14T01:32:39.036Z,14.81
2024-04-14T01:35:06.718Z,14.71
2024-04-14T01:37:33.655Z,14.66
2024-04-14T01:40:00.534Z,14.62
2024-04-14T01:42:27.387Z,14.61
2024-04-14T01:44:54.063Z,14.64
2024-04-14T01:47:20.667Z,14.64
2024-04-14T01:49:47.305Z,14.59
2024-04-14T01:52:13.887Z,14.63
2024-04-14T01:54:40.583Z,14.58
2024-04-14T01:57:07.291Z,14.56
2024-04-14T01:59:34.003Z,14.52
2024-04-14T02:02:00.547Z,14.57
2024-04-14T02:04:27.248Z,14.55
2024-04-14T02:06:53.967Z,14.60
2024-04-14T02:09:20.799Z,14.62
2024-04-14T02:11:47.483Z,14.60
2024-04-14T02:14:14.184Z,14.64
2024-04-14T02:16:40.769Z,14.71
2024-04-14T02:19:07.419Z,14.74
2024-04-14T02:21:34.104Z,14.73
2024-04-14T02:24:00.720Z,14.70
2024-04-14T02:26:27.306Z,14.63
2024-04-14T02:28:53.888Z,14.58
2024-04-14T02:31:20.584Z,14.48
2024-04-14T02:33:47.209Z,14.42
2024-04-14T02:36:13.813Z,14.36
2024-04-14T02:38:40.408Z,14.30
2024-04-14T02:41:07.003Z,14.26
2024-04-14T02:43:36.504Z,14.29
2024-04-14T02:46:03.532Z,14.30
2024-04-14T02:48:30.342Z,14.30
2024-04-14T02:50:57.044Z,14.34
2024-04-14T02:53:24.316Z,14.40
2024-04-14T02:55:50.918Z,14.33
2024-04-14T02:58:18.680Z,14.34
2024-04-14T03:00:45.492Z,14.31
2024-04-14T03:03:12.292Z,14.35
2024-04-14T03:05:38.990Z,14.34
2024-04-14T03:08:06.748Z,14.29
2024-04-14T03:10:34.361Z,14.27
2024-04-14T03:13:01.202Z,14.25
2024-04-14T03:15:28.148Z,14.31
2024-04-14T03:17:55.092Z,14.29
2024-04-14T03:20:21.732Z,14.22
2024-04-14T03:22:48.315Z,14.15
2024-04-14T03:25:14.946Z,14.06
2024-04-14T03:27:41.602Z,14.01
2024-04-14T03:30:08.800Z,13.96
2024-04-14T03:32:35.546Z,13.89
2024-04-14T03:35:02.134Z,13.84
2024-04-14T03:37:28.763Z,13.82
2024-04-14T03:39:55.723Z,13.83
2024-04-14T03:42:22.401Z,13.78
2024-04-14T03:44:49.163Z,13.74
2024-04-14T03:47:15.749Z,13.71
2024-04-14T03:49:42.334Z,13.67
2024-04-14T03:52:09.022Z,13.65
2024-04-14T03:54:35.679Z,13.62
2024-04-14T03:57:04.105Z,13.60
2024-04-14T03:59:30.817Z,13.60
2024-04-14T04:01:57.364Z,13.62
2024-04-14T04:04:24.098Z,13.59
2024-04-14T04:06:50.772Z,13.60
2024-04-14T04:09:17.490Z,13.53
2024-04-14T04:11:44.350Z,13.49
2024-04-14T04:14:10.889Z,13.48
2024-04-14T04:16:37.580Z,13.45
2024-04-14T04:19:11.395Z,13.43
2024-04-14T04:21:45.530Z,13.35
2024-04-14T04:24:12.225Z,13.32
2024-04-14T04:26:39.211Z,13.22
2024-04-14T04:29:05.877Z,13.18
2024-04-14T04:31:32.443Z,13.12
2024-04-14T04:33:59.080Z,13.08
2024-04-14T04:36:25.947Z,13.03
2024-04-14T04:38:54.936Z,12.97
2024-04-14T04:41:21.586Z,12.97
2024-04-14T04:43:49.248Z,12.92
2024-04-14T04:46:15.781Z,12.87
2024-04-14T04:48:42.732Z,12.89
2024-04-14T04:51:09.456Z,12.93
2024-04-14T04:53:36.138Z,12.97
2024-04-14T04:56:02.773Z,13.02
2024-04-14T04:58:29.476Z,13.07
2024-04-14T05:00:59.804Z,13.12
2024-04-14T05:03:31.256Z,13.18
2024-04-14T05:06:00.920Z,13.26
2024-04-14T05:08:28.386Z,13.37
2024-04-14T05:10:56.926Z,13.44
2024-04-14T05:13:24.650Z,13.57
2024-04-14T05:15:51.834Z,13.70
2024-04-14T05:18:18.621Z,13.83
2024-04-14T05:20:45.924Z,13.91
2024-04-14T05:23:12.832Z,14.11
2024-04-14T05:25:42.800Z,14.35
2024-04-14T05:28:09.771Z,14.55
2024-04-14T05:30:42.282Z,14.78
2024-04-14T05:33:08.879Z,15.06
2024-04-14T05:35:35.815Z,15.36
2024-04-14T05:38:03.354Z,15.66
2024-04-14T05:40:29.983Z,15.90
2024-04-14T05:42:56.633Z,16.19
2024-04-14T05:45:28.235Z,16.46
2024-04-14T05:47:58.578Z,16.65
2024-04-14T05:50:25.259Z,16.92
2024-04-14T05:52:51.823Z,17.23
2024-04-14T05:55:18.595Z,17.47
2024-04-14T05:57:45.205Z,17.71
2024-04-14T06:00:12.026Z,18.01
2024-04-14T06:02:38.689Z,18.23
2024-04-14T06:05:06.038Z,18.40
2024-04-14T06:07:35.997Z,18.45
2024-04-14T06:10:03.936Z,18.54
2024-04-14T06:12:30.540Z,18.58
2024-04-14T06:14:57.437Z,18.70
2024-04-14T06:17:24.088Z,18.92
2024-04-14T06:19:50.738Z,19.14
2024-04-14T06:22:18.233Z,19.28
2024-04-14T06:24:44.875Z,19.56
2024-04-14T06:27:11.526Z,19.96
2024-04-14T06:29:38.229Z,20.30
2024-04-14T06:32:05.307Z,20.60
2024-04-14T06:34:31.991Z,20.84
2024-04-14T06:36:58.667Z,21.12
2024-04-14T06:39:26.277Z,21.30
2024-04-14T06:41:52.963Z,21.34
2024-04-14T06:44:19.801Z,21.31
2024-04-14T06:46:46.629Z,21.41
2024-04-14T06:49:13.299Z,21.58
2024-04-14T06:51:41.168Z,21.88
2024-04-14T06:54:07.753Z,22.16
2024-04-14T06:56:36.639Z,22.29
2024-04-14T06:59:03.840Z,22.31
2024-04-14T07:01:30.923Z,22.37
2024-04-14T07:03:57.811Z,22.40
2024-04-14T07:06:24.982Z,22.34
2024-04-14T07:08:51.644Z,22.27
2024-04-14T07:11:18.594Z,22.33
2024-04-14T07:13:45.203Z,22.53
2024-04-14T07:16:11.788Z,23.15
2024-04-14T07:18:38.508Z,23.63
2024-04-14T07:21:05.556Z,23.88
2024-04-14T07:23:33.282Z,23.97
2024-04-14T07:26:00.059Z,24.03
2024-04-14T07:28:26.596Z,24.19
2024-04-14T07:30:53.351Z,24.26
2024-04-14T07:33:20.217Z,24.51
2024-04-14T07:35:46.911Z,25.00
2024-04-14T07:38:14.675Z,25.40
2024-04-14T07:40:42.378Z,25.68
2024-04-14T07:43:09.142Z,25.74
2024-04-14T07:45:36.734Z,25.83
2024-04-14T07:48:03.644Z,25.61
2024-04-14T07:50:30.362Z,25.88
2024-04-14T07:52:57.027Z,25.70
2024-04-14T07:55:23.876Z,26.13
2024-04-14T07:57:50.641Z,26.12
2024-04-14T08:00:18.745Z,25.81
2024-04-14T08:02:45.752Z,25.78
2024-04-14T08:05:12.482Z,26.17
2024-04-14T08:07:39.254Z,26.48
2024-04-14T08:10:06.400Z,26.60
2024-04-14T08:12:33.057Z,26.31
2024-04-14T08:14:59.769Z,26.28
2024-04-14T08:17:26.431Z,26.41
2024-04-14T08:19:53.983Z,26.51
2024-04-14T08:22:20.907Z,26.36
2024-04-14T08:24:47.656Z,26.68
2024-04-14T08:27:14.224Z,26.74
2024-04-14T08:29:40.873Z,26.88
2024-04-14T08:32:07.880Z,26.63
2024-04-14T08:34:34.677Z,26.15
2024-04-14T08:37:01.502Z,26.42
2024-04-14T08:39:28.317Z,26.76
2024-04-14T08:41:57.889Z,27.30
2024-04-14T08:44:26.095Z,27.90
2024-04-14T08:46:54.523Z,28.14
2024-04-14T08:49:24.551Z,28.47
2024-04-14T08:51:52.782Z,28.03
2024-04-14T08:54:19.447Z,28.06
2024-04-14T08:56:49.860Z,27.69
2024-04-14T08:59:18.218Z,27.65
2024-04-14T09:01:44.943Z,27.64
2024-04-14T09:04:11.950Z,27.25
2024-04-14T09:06:45.439Z,27.26
2024-04-14T09:09:14.938Z,27.76
2024-04-14T09:11:56.422Z,27.73
2024-04-14T09:14:26.584Z,27.88
2024-04-14T09:16:53.476Z,28.08
2024-04-14T09:19:20.234Z,28.33
2024-04-14T09:21:47.376Z,28.42
2024-04-14T09:24:14.254Z,28.37
2024-04-14T09:26:40.848Z,28.09
2024-04-14T09:29:08.034Z,27.85
2024-04-14T09:31:36.309Z,27.78
2024-04-14T09:34:06.887Z,27.90
2024-04-14T09:36:33.626Z,28.16
2024-04-14T09:39:02.636Z,27.27
2024-04-14T09:41:29.818Z,27.27
2024-04-14T09:43:57.240Z,27.05
2024-04-14T09:46:28.557Z,26.89
2024-04-14T09:48:55.551Z,26.62
2024-04-14T09:51:23.661Z,26.55
2024-04-14T09:53:51.011Z,26.42
2024-04-14T09:56:17.860Z,26.86
2024-04-14T09:58:44.732Z,27.13
2024-04-14T10:01:13.906Z,27.30
2024-04-14T10:03:42.964Z,26.87
2024-04-14T10:06:10.577Z,26.71
2024-04-14T10:08:37.322Z,27.10
2024-04-14T10:11:05.903Z,27.57
2024-04-14T10:13:52.205Z,27.67
2024-04-14T10:16:20.224Z,27.56
2024-04-14T10:18:48.620Z,27.76
2024-04-14T10:21:19.163Z,27.98
2024-04-14T10:23:50.924Z,27.88
2024-04-14T10:26:21.235Z,27.82
2024-04-14T10:28:56.000Z,27.27
2024-04-14T10:31:34.718Z,27.23
2024-04-14T10:34:08.486Z,27.87
2024-04-14T10:36:41.140Z,27.81
2024-04-14T10:39:15.314Z,28.10
2024-04-14T10:41:42.064Z,28.45
2024-04-14T10:44:18.401Z,28.03
2024-04-14T10:46:49.710Z,27.47
2024-04-14T10:49:17.409Z,27.75
2024-04-14T10:51:44.314Z,27.75
2024-04-14T10:54:11.007Z,28.12
2024-04-14T10:56:37.894Z,28.39
2024-04-14T10:59:04.524Z,28.44
2024-04-14T11:01:31.881Z,28.85
2024-04-14T11:03:59.236Z,28.46
2024-04-14T11:06:26.474Z,28.50
2024-04-14T11:08:54.553Z,28.73
2024-04-14T11:11:21.822Z,29.08
2024-04-14T11:13:49.337Z,28.27
2024-04-14T11:16:17.295Z,28.17
2024-04-14T11:18:47.803Z,28.34
2024-04-14T11:21:21.438Z,28.92
2024-04-14T11:23:49.474Z,28.32
2024-04-14T11:26:16.168Z,28.73
2024-04-14T11:28:42.815Z,28.96
2024-04-14T11:31:10.000Z,28.86
2024-04-14T11:33:38.624Z,29.18
2024-04-14T11:36:11.428Z,29.53
2024-04-14T11:38:38.701Z,28.84
2024-04-14T11:41:06.200Z,28.98
2024-04-14T11:43:32.882Z,29.23
2024-04-14T11:45:59.432Z,29.29
2024-04-14T11:48:26.460Z,28.92
2024-04-14T11:50:53.520Z,29.09
2024-04-14T11:53:20.533Z,29.66
2024-04-14T11:55:47.202Z,29.79
2024-04-14T11:58:15.588Z,29.55
2024-04-14T12:00:42.693Z,29.67
2024-04-14T12:03:10.142Z,29.96
2024-04-14T12:05:36.943Z,29.74
2024-04-14T12:08:03.602Z,29.55
2024-04-14T12:10:31.946Z,29.60
2024-04-14T12:12:59.008Z,29.38
2024-04-14T12:15:25.621Z,29.98
2024-04-14T12:17:52.269Z,30.40
2024-04-14T12:20:19.180Z,29.95
2024-04-14T12:22:45.758Z,28.90
2024-04-14T12:25:12.430Z,29.31
2024-04-14T12:27:39.492Z,29.32
2024-04-14T12:30:06.706Z,29.90
2024-04-14T12:32:33.299Z,30.23
2024-04-14T12:35:03.142Z,30.01
2024-04-14T12:37:29.828Z,30.08
2024-04-14T12:39:56.565Z,29.94
2024-04-14T12:42:23.514Z,30.12
2024-04-14T12:44:50.265Z,30.30
2024-04-14T12:47:17.072Z,30.73
2024-04-14T12:49:43.771Z,30.38
2024-04-14T12:52:10.353Z,30.41
2024-04-14T12:54:37.092Z,30.74
2024-04-14T12:57:04.028Z,30.96
2024-04-14T12:59:30.730Z,30.62
2024-04-14T13:01:57.532Z,30.31
2024-04-14T13:04:24.530Z,30.31
2024-04-14T13:06:51.443Z,30.75
2024-04-14T13:09:18.078Z,30.99
2024-04-14T13:11:44.750Z,30.83
2024-04-14T13:14:12.368Z,30.84
2024-04-14T13:16:39.099Z,31.00
2024-04-14T13:19:05.904Z,31.19
2024-04-14T13:21:34.710Z,30.06
2024-04-14T13:24:01.525Z,29.93
2024-04-14T13:26:29.050Z,30.11
2024-04-14T13:28:56.120Z,29.83
2024-04-14T13:31:22.715Z,29.40
2024-04-14T13:33:49.812Z,29.49
2024-04-14T13:36:16.639Z,29.87
2024-04-14T13:38:43.141Z,30.43
2024-04-14T13:41:10.487Z,30.56
2024-04-14T13:43:37.429Z,30.87
2024-04-14T13:46:04.266Z,30.78
2024-04-14T13:48:31.094Z,31.27
2024-04-14T13:50:57.735Z,31.19
2024-04-14T13:53:24.336Z,30.87
2024-04-14T13:55:50.978Z,30.52
2024-04-14T13:58:21.587Z,30.56
2024-04-14T14:00:49.428Z,30.89
2024-04-14T14:03:16.372Z,30.94
2024-04-14T14:05:44.593Z,29.98
2024-04-14T14:08:12.227Z,30.17
2024-04-14T14:10:39.062Z,29.99
2024-04-14T14:13:08.723Z,29.78
2024-04-14T14:15:35.919Z,29.39
2024-04-14T14:18:02.972Z,29.73
2024-04-14T14:20:29.714Z,29.82
2024-04-14T14:22:56.671Z,29.83
2024-04-14T14:25:23.655Z,29.82
2024-04-14T14:27:50.338Z,30.42
2024-04-14T14:30:16.863Z,30.65
2024-04-14T14:32:43.526Z,30.68
2024-04-14T14:35:28.601Z,30.86
2024-04-14T14:37:55.254Z,30.95
2024-04-14T14:40:21.898Z,30.83
2024-04-14T14:42:48.993Z,30.17
2024-04-14T14:45:15.722Z,30.19
2024-04-14T14:47:42.306Z,30.31
2024-04-14T14:50:09.035Z,30.51
2024-04-14T14:52:35.586Z,30.77
2024-04-14T14:55:02.233Z,30.63
2024-04-14T14:57:28.827Z,30.27
2024-04-14T14:59:55.566Z,29.79
2024-04-14T15:02:22.745Z,29.90
2024-04-14T15:04:49.472Z,30.02
2024-04-14T15:07:16.284Z,30.09
2024-04-14T15:09:43.164Z,29.77
2024-04-14T15:12:12.503Z,29.61
2024-04-14T15:14:39.359Z,29.80
2024-04-14T15:17:06.016Z,29.73
2024-04-14T15:19:35.062Z,29.47
2024-04-14T15:22:02.023Z,29.11
2024-04-14T15:24:28.713Z,29.14
2024-04-14T15:26:55.396Z,29.15
2024-04-14T15:29:21.932Z,28.83
2024-04-14T15:31:48.557Z,28.60
2024-04-14T15:34:15.380Z,28.05
2024-04-14T15:36:41.928Z,28.41
2024-04-14T15:39:08.531Z,27.98
2024-04-14T15:41:35.236Z,28.18
2024-04-14T15:44:07.752Z,28.21
2024-04-14T15:46:41.511Z,28.48
2024-04-14T15:49:10.562Z,28.65
2024-04-14T15:51:37.350Z,28.56
2024-04-14T15:54:04.550Z,28.66
2024-04-14T15:56:31.090Z,28.74
2024-04-14T15:58:57.690Z,28.85
2024-04-14T16:01:24.484Z,28.89
2024-04-14T16:03:51.860Z,28.70
2024-04-14T16:06:21.420Z,28.72
2024-04-14T16:08:53.850Z,28.71
2024-04-14T16:11:20.901Z,28.43
2024-04-14T16:13:47.774Z,28.40
2024-04-14T16:16:17.089Z,28.53
2024-04-14T16:18:44.429Z,28.49
2024-04-14T16:21:11.481Z,28.54
2024-04-14T16:23:47.008Z,28.53
2024-04-14T16:26:14.405Z,28.57
2024-04-14T16:28:41.846Z,28.53
2024-04-14T16:31:10.452Z,28.46
2024-04-14T16:33:37.370Z,28.31
2024-04-14T16:36:04.740Z,28.35
2024-04-14T16:38:31.654Z,28.23
2024-04-14T16:40:58.203Z,28.17
2024-04-14T16:43:24.955Z,28.21
2024-04-14T16:45:51.567Z,28.05
2024-04-14T16:48:18.817Z,28.04
2024-04-14T16:50:45.788Z,27.98
2024-04-14T16:53:12.589Z,27.78
2024-04-14T16:55:39.292Z,27.71
2024-04-14T16:58:06.302Z,27.63
2024-04-14T17:00:34.079Z,27.66
2024-04-14T17:03:01.350Z,27.64
2024-04-14T17:05:28.155Z,27.68
2024-04-14T17:07:54.813Z,27.59
2024-04-14T17:10:21.573Z,27.55
2024-04-14T17:12:48.238Z,27.43
2024-04-14T17:15:15.548Z,27.32
2024-04-14T17:17:42.699Z,27.25
2024-04-14T17:20:09.746Z,27.14
2024-04-14T17:22:37.185Z,27.00
2024-04-14T17:25:04.121Z,26.94
2024-04-14T17:27:30.627Z,26.69
2024-04-14T17:29:57.367Z,26.40
2024-04-14T17:32:24.057Z,26.15
2024-04-14T17:34:50.766Z,25.74
2024-04-14T17:37:17.432Z,25.67
2024-04-14T17:39:44.203Z,25.34
2024-04-14T17:42:10.927Z,25.26
2024-04-14T17:44:37.873Z,25.26
2024-04-14T17:47:04.904Z,25.13
2024-04-14T17:49:31.600Z,25.05
2024-04-14T17:51:58.388Z,24.98
2024-04-14T17:54:24.991Z,24.81
2024-04-14T17:56:52.388Z,24.73
2024-04-14T17:59:19.319Z,24.64
2024-04-14T18:01:47.006Z,24.49
2024-04-14T18:04:13.912Z,24.27
2024-04-14T18:06:40.659Z,24.07
2024-04-14T18:09:07.812Z,23.92
2024-04-14T18:11:34.534Z,23.73
2024-04-14T18:14:01.319Z,23.57
2024-04-14T18:16:27.976Z,23.42
2024-04-14T18:18:54.632Z,23.28
2024-04-14T18:21:21.806Z,23.14
2024-04-14T18:23:48.450Z,23.02
2024-04-14T18:26:15.108Z,22.89
2024-04-14T18:28:41.968Z,22.78
2024-04-14T18:31:08.717Z,22.68
2024-04-14T18:33:35.575Z,22.56
2024-04-14T18:36:10.524Z,22.46
2024-04-14T18:38:44.953Z,22.37
2024-04-14T18:41:11.752Z,22.29
2024-04-14T18:43:38.533Z,22.22
2024-04-14T18:46:05.517Z,22.13
2024-04-14T18:48:36.932Z,22.08
2024-04-14T18:51:07.180Z,22.07
2024-04-14T18:53:34.079Z,22.05
2024-04-14T18:56:03.161Z,22.03
2024-04-14T18:58:32.993Z,21.94
2024-04-14T19:01:01.521Z,21.92
2024-04-14T19:03:28.311Z,21.90
2024-04-14T19:05:55.127Z,21.89
2024-04-14T19:08:27.333Z,21.85
2024-04-14T19:10:54.063Z,21.74
2024-04-14T19:13:20.772Z,21.68
2024-04-14T19:15:48.941Z,21.57
2024-04-14T19:18:15.872Z,21.49
2024-04-14T19:20:42.526Z,21.51
2024-04-14T19:23:09.221Z,21.47
2024-04-14T19:25:35.813Z,21.37
2024-04-14T19:28:04.064Z,21.38
2024-04-14T19:30:30.707Z,21.31
2024-04-14T19:32:57.405Z,21.28
2024-04-14T19:35:24.168Z,21.26
2024-04-14T19:37:50.884Z,21.34
2024-04-14T19:40:17.530Z,21.38
2024-04-14T19:42:45.903Z,21.36
2024-04-14T19:45:12.763Z,21.25
2024-04-14T19:47:39.425Z,21.14
2024-04-14T19:50:06.359Z,21.06
2024-04-14T19:52:33.740Z,20.99
2024-04-14T19:55:02.679Z,20.95
2024-04-14T19:57:29.908Z,20.88
2024-04-14T19:59:56.620Z,20.76
2024-04-14T20:02:23.584Z,20.78
2024-04-14T20:04:50.300Z,20.84
2024-04-14T20:07:18.900Z,20.86
2024-04-14T20:09:46.029Z,20.89
2024-04-14T20:12:13.115Z,20.92
2024-04-14T20:14:39.767Z,20.97
2024-04-14T20:17:06.387Z,20.95
2024-04-14T20:19:33.781Z,20.92
2024-04-14T20:22:00.540Z,20.92
2024-04-14T20:24:27.233Z,20.90
2024-04-14T20:26:53.878Z,20.89
2024-04-14T20:29:21.468Z,20.86
2024-04-14T20:31:48.772Z,20.81
2024-04-14T20:34:15.441Z,20.71
2024-04-14T20:36:42.247Z,20.73
2024-04-14T20:39:10.679Z,20.68
2024-04-14T20:41:37.403Z,20.72
2024-04-14T20:44:03.988Z,20.69
2024-04-14T20:46:30.672Z,20.69
2024-04-14T20:48:57.328Z,20.64
2024-04-14T20:51:24.074Z,20.59
2024-04-14T20:53:50.652Z,20.42
2024-04-14T20:56:17.322Z,20.39
2024-04-14T20:58:48.055Z,20.34
2024-04-14T21:01:15.567Z,20.30
2024-04-14T21:03:42.791Z,20.25
2024-04-14T21:06:09.525Z,20.22
2024-04-14T21:08:36.134Z,20.19
2024-04-14T21:11:10.307Z,20.17
2024-04-14T21:13:37.084Z,20.06
2024-04-14T21:16:13.471Z,20.00
2024-04-14T21:18:42.593Z,19.90
2024-04-14T21:21:09.566Z,19.89
2024-04-14T21:23:36.208Z,19.93
2024-04-14T21:26:05.012Z,19.97
2024-04-14T21:28:33.521Z,20.02
2024-04-14T21:31:00.419Z,20.02
2024-04-14T21:33:27.322Z,20.06
2024-04-14T21:35:55.241Z,20.09
2024-04-14T21:38:23.048Z,20.09
2024-04-14T21:40:51.006Z,20.04
2024-04-14T21:43:18.570Z,19.91
2024-04-14T21:45:59.143Z,19.88
2024-04-14T21:48:29.291Z,19.82
2024-04-14T21:51:05.411Z,19.83
2024-04-14T21:53:33.754Z,19.80
2024-04-14T21:56:01.559Z,19.78
2024-04-14T21:58:31.695Z,19.76
2024-04-14T22:01:00.686Z,19.74
2024-04-14T22:03:28.133Z,19.71
2024-04-14T22:05:56.438Z,19.65
2024-04-14T22:08:24.662Z,19.58
2024-04-14T22:10:51.378Z,19.57
2024-04-14T22:13:22.791Z,19.57
2024-04-14T22:15:51.530Z,19.45
2024-04-14T22:18:19.219Z,19.37
2024-04-14T22:20:46.536Z,19.37
2024-04-14T22:23:13.664Z,19.33
2024-04-14T22:25:40.561Z,19.30
2024-04-14T22:28:08.420Z,19.22
2024-04-14T22:30:35.976Z,19.18
2024-04-14T22:33:02.661Z,19.11
2024-04-14T22:35:29.536Z,19.12
2024-04-14T22:37:56.249Z,18.99
2024-04-14T22:40:22.864Z,18.92
2024-04-14T22:42:49.574Z,18.89
2024-04-14T22:45:16.327Z,18.80
2024-04-14T22:47:43.311Z,18.73
2024-04-14T22:50:10.003Z,18.67
2024-04-14T22:52:37.008Z,18.68
2024-04-14T22:55:05.445Z,18.58
2024-04-14T22:57:32.085Z,18.56
2024-04-14T22:59:58.966Z,18.52
2024-04-14T23:02:25.740Z,18.50
2024-04-14T23:04:52.485Z,18.44
2024-04-14T23:07:19.292Z,18.32
2024-04-14T23:09:46.039Z,18.36
2024-04-14T23:12:13.064Z,18.33
2024-04-14T23:14:39.784Z,18.33
2024-04-14T23:17:06.419Z,18.30
2024-04-14T23:19:33.042Z,18.29
2024-04-14T23:21:59.683Z,18.22
2024-04-14T23:24:26.281Z,18.19
2024-04-14T23:26:52.902Z,18.09
2024-04-14T23:29:19.513Z,18.11
2024-04-14T23:31:46.197Z,18.14
2024-04-14T23:34:13.001Z,18.03
2024-04-14T23:36:39.699Z,18.01
2024-04-14T23:39:06.458Z,17.92
2024-04-14T23:41:33.086Z,17.87
2024-04-14T23:43:59.950Z,17.87
2024-04-14T23:46:26.813Z,17.94
2024-04-14T23:48:53.531Z,17.97
2024-04-14T23:51:21.028Z,17.86
2024-04-14T23:53:47.507Z,17.80
2024-04-14T23:56:14.099Z,17.73
2024-04-14T23:58:41.399Z,17.64
